Barika, Algeria

55°F / 13°C
Clear
Humidity: 54%
Dew Point: 39°F / 4°C
Wind: ESE at 4 mph / 6 km/h
Pressure: 30.30 in / 1026 hPa (Falling)
Visibility: -
Clouds:
Yesterday's Maximum: 59°F / 15°C
Yesterday's Minimum: 41°F / 5°C approx.
Yesterday's Heating Degree Days: 15 approx.
Sunrise:7:22 AM CET
Sunset:6:23 PM CET
Moon Rise:5:09 PM CET
Moon Set:6:30 AM CET
Moon Phase Waxing Gibbous
NOAA Weather Radio
No local feed.
METAR DAUB 181000Z 12003KT CAVOK 13/04 Q1026
As of: 11:00 AM CET on February 18, 2019
Observed at: Biskra, Algeria

View Station's History

Local Satellite

Current Satellite Forecast
Region Default Local
No Yes

View Full Screen WunderMap

Forecast

Current Satellite Forecast
Sunday
. High: 59° F. / 15° C.

. High: 55° F. / 13° C.

Features

Weather Apps

WunderRadio

Weather Underground Apps
Check out our wide variety of mobile and setup applications.

Weather Underground Applications

Top of Page

© Copyright 2019
The Weather Company, LLC